createdAt,value
2018-07-05T00:00:19.393Z,17.90
2018-07-05T00:02:58.745Z,17.80
2018-07-05T00:08:11.425Z,17.40
2018-07-05T00:10:50.707Z,17.30
2018-07-05T00:13:30.019Z,17.40
2018-07-05T00:16:09.229Z,17.40
2018-07-05T00:18:49.249Z,17.50
2018-07-05T00:21:28.701Z,17.50
2018-07-05T00:24:07.901Z,17.50
2018-07-05T00:26:47.085Z,17.50
2018-07-05T00:29:26.225Z,17.60
2018-07-05T00:32:05.596Z,17.70
2018-07-05T00:34:44.836Z,17.60
2018-07-05T00:37:24.119Z,17.50
2018-07-05T00:40:03.320Z,17.60
2018-07-05T00:42:42.583Z,17.70
2018-07-05T00:45:21.955Z,17.70
2018-07-05T00:48:01.197Z,17.60
2018-07-05T00:50:40.484Z,17.70
2018-07-05T00:53:19.761Z,17.60
2018-07-05T00:55:59.454Z,17.60
2018-07-05T00:58:38.637Z,17.60
2018-07-05T01:01:17.901Z,17.70
2018-07-05T01:03:57.046Z,17.70
2018-07-05T01:06:36.361Z,17.60
2018-07-05T01:09:15.552Z,17.40
2018-07-05T01:11:54.980Z,17.40
2018-07-05T01:14:34.308Z,17.20
2018-07-05T01:17:13.496Z,17.20
2018-07-05T01:19:52.693Z,17.20
2018-07-05T01:22:31.939Z,17.00
2018-07-05T01:25:11.200Z,16.80
2018-07-05T01:27:50.424Z,16.90
2018-07-05T01:30:29.700Z,17.00
2018-07-05T01:33:08.942Z,17.10
2018-07-05T01:35:48.429Z,17.10
2018-07-05T01:38:27.557Z,16.90
2018-07-05T01:41:06.786Z,16.90
2018-07-05T01:43:46.116Z,16.80
2018-07-05T01:46:25.474Z,16.60
2018-07-05T01:49:04.673Z,16.60
2018-07-05T01:51:43.948Z,16.60
2018-07-05T01:54:23.220Z,16.50
2018-07-05T01:57:02.665Z,16.50
2018-07-05T01:59:41.945Z,16.50
2018-07-05T02:02:21.157Z,16.60
2018-07-05T02:05:00.500Z,16.50
2018-07-05T02:07:39.672Z,16.40
2018-07-05T02:10:19.122Z,16.30
2018-07-05T02:12:58.289Z,16.30
2018-07-05T02:15:37.468Z,16.40
2018-07-05T02:18:16.642Z,16.50
2018-07-05T02:20:56.065Z,16.50
2018-07-05T02:23:35.277Z,16.50
2018-07-05T02:26:14.453Z,16.60
2018-07-05T02:28:53.713Z,16.60
2018-07-05T02:31:32.801Z,16.50
2018-07-05T02:34:11.886Z,16.50
2018-07-05T02:36:50.971Z,16.50
2018-07-05T02:39:35.637Z,16.40
2018-07-05T02:42:14.865Z,16.50
2018-07-05T02:44:54.545Z,16.30
2018-07-05T02:47:33.873Z,16.40
2018-07-05T02:50:13.333Z,16.50
2018-07-05T02:52:52.631Z,16.30
2018-07-05T02:55:31.734Z,16.30
2018-07-05T02:58:11.108Z,16.30
2018-07-05T03:00:50.270Z,16.10
2018-07-05T03:03:29.666Z,16.10
2018-07-05T03:06:08.848Z,16.10
2018-07-05T03:11:21.816Z,16.20
2018-07-05T03:14:00.977Z,16.10
2018-07-05T03:16:40.154Z,16.00
2018-07-05T03:19:19.384Z,15.80
2018-07-05T03:22:03.104Z,15.60
2018-07-05T03:24:42.405Z,15.60
2018-07-05T03:27:21.574Z,15.70
2018-07-05T03:30:00.980Z,15.80
2018-07-05T03:32:40.192Z,15.90
2018-07-05T03:35:19.501Z,15.70
2018-07-05T03:37:58.632Z,15.70
2018-07-05T03:40:38.000Z,15.80
2018-07-05T03:43:17.409Z,15.80
2018-07-05T03:45:56.702Z,15.90
2018-07-05T03:48:35.844Z,15.90
2018-07-05T03:51:14.952Z,15.80
2018-07-05T03:53:54.105Z,15.80
2018-07-05T03:56:33.237Z,15.90
2018-07-05T03:59:12.553Z,15.90
2018-07-05T04:01:51.842Z,15.90
2018-07-05T04:04:31.184Z,15.90
2018-07-05T04:07:10.381Z,16.00
2018-07-05T04:09:49.698Z,15.90
2018-07-05T04:12:29.049Z,15.90
2018-07-05T04:15:08.389Z,16.10
2018-07-05T04:17:47.619Z,16.10
2018-07-05T04:20:26.985Z,16.20
2018-07-05T04:23:06.148Z,16.30
2018-07-05T04:25:45.340Z,16.10
2018-07-05T04:28:24.625Z,15.90
2018-07-05T04:31:03.949Z,16.00
2018-07-05T04:33:43.197Z,16.20
2018-07-05T04:36:22.532Z,16.30
2018-07-05T04:39:01.890Z,16.50
2018-07-05T04:42:44.389Z,16.60
2018-07-05T04:45:23.769Z,16.70
2018-07-05T04:48:08.628Z,16.50
2018-07-05T04:50:48.072Z,16.40
2018-07-05T04:53:27.297Z,16.50
2018-07-05T04:56:06.601Z,16.60
2018-07-05T04:58:45.768Z,16.60
2018-07-05T05:01:25.181Z,16.60
2018-07-05T05:04:04.405Z,16.80
2018-07-05T05:06:43.797Z,17.10
2018-07-05T05:09:22.982Z,17.50
2018-07-05T05:12:02.318Z,17.50
2018-07-05T05:14:41.521Z,17.70
2018-07-05T05:17:20.721Z,17.80
2018-07-05T05:19:59.965Z,18.00
2018-07-05T05:22:39.292Z,18.30
2018-07-05T05:25:18.457Z,18.70
2018-07-05T05:27:58.119Z,19.00
2018-07-05T05:30:37.528Z,19.50
2018-07-05T05:33:16.856Z,20.00
2018-07-05T05:35:56.218Z,20.30
2018-07-05T05:38:35.324Z,20.70
2018-07-05T05:41:14.453Z,20.90
2018-07-05T05:43:53.604Z,20.80
2018-07-05T05:46:32.917Z,20.50
2018-07-05T05:49:12.089Z,20.80
2018-07-05T05:51:51.346Z,21.00
2018-07-05T05:54:30.604Z,21.50
2018-07-05T05:57:09.805Z,21.60
2018-07-05T05:59:49.005Z,21.50
2018-07-05T06:02:28.334Z,21.80
2018-07-05T06:05:07.896Z,21.50
2018-07-05T06:07:47.084Z,21.60
2018-07-05T06:10:26.310Z,21.70
2018-07-05T06:13:05.427Z,22.00
2018-07-05T06:15:44.692Z,22.40
2018-07-05T06:18:24.009Z,22.40
2018-07-05T06:21:03.398Z,22.60
2018-07-05T06:23:42.581Z,22.60
2018-07-05T06:26:21.869Z,22.60
2018-07-05T06:29:01.226Z,22.70
2018-07-05T06:31:40.675Z,22.80
2018-07-05T06:34:19.745Z,22.70
2018-07-05T06:36:58.956Z,22.90
2018-07-05T06:39:38.277Z,23.20
2018-07-05T06:42:17.460Z,23.40
2018-07-05T06:44:56.696Z,23.60
2018-07-05T06:47:35.996Z,23.80
2018-07-05T06:50:15.156Z,24.00
2018-07-05T06:52:54.436Z,24.00
2018-07-05T06:55:33.702Z,24.10
2018-07-05T06:58:13.140Z,24.00
2018-07-05T07:00:52.281Z,24.30
2018-07-05T07:03:31.494Z,24.50
2018-07-05T07:06:10.814Z,24.60
2018-07-05T07:08:50.320Z,24.60
2018-07-05T07:11:29.583Z,24.50
2018-07-05T07:14:08.920Z,24.40
2018-07-05T07:16:48.070Z,24.30
2018-07-05T07:19:27.414Z,24.20
2018-07-05T07:22:06.732Z,24.30
2018-07-05T07:24:46.097Z,24.20
2018-07-05T07:27:25.345Z,24.20
2018-07-05T07:30:04.501Z,24.20
2018-07-05T07:32:43.677Z,24.10
2018-07-05T07:35:22.872Z,24.30
2018-07-05T07:40:35.407Z,24.40
2018-07-05T07:43:02.265Z,24.20
2018-07-05T07:45:29.162Z,24.10
2018-07-05T07:47:56.007Z,24.30
2018-07-05T07:50:22.829Z,24.20
2018-07-05T07:52:49.713Z,24.60
2018-07-05T07:55:16.569Z,24.80
2018-07-05T07:57:43.393Z,24.70
2018-07-05T08:00:10.256Z,24.40
2018-07-05T08:02:37.064Z,24.50
2018-07-05T08:05:03.920Z,24.60
2018-07-05T08:07:30.893Z,24.70
2018-07-05T08:09:57.801Z,24.90
2018-07-05T08:12:24.721Z,25.10
2018-07-05T08:14:51.533Z,24.70
2018-07-05T08:17:18.376Z,24.70
2018-07-05T08:19:45.225Z,25.00
2018-07-05T08:22:12.043Z,24.90
2018-07-05T08:24:38.979Z,24.80
2018-07-05T08:27:05.920Z,24.90
2018-07-05T08:29:32.765Z,25.10
2018-07-05T08:31:59.619Z,25.30
2018-07-05T08:34:26.421Z,24.90
2018-07-05T08:36:53.267Z,24.90
2018-07-05T08:39:20.093Z,24.80
2018-07-05T08:41:47.651Z,24.70
2018-07-05T08:44:14.519Z,24.70
2018-07-05T08:46:41.765Z,24.70
2018-07-05T08:49:08.653Z,24.80
2018-07-05T08:51:35.460Z,25.00
2018-07-05T08:54:02.325Z,25.40
2018-07-05T08:56:29.174Z,25.80
2018-07-05T08:58:55.981Z,26.00
2018-07-05T09:01:22.837Z,26.40
2018-07-05T09:03:49.658Z,26.80
2018-07-05T09:06:16.805Z,27.10
2018-07-05T09:08:43.655Z,27.30
2018-07-05T09:11:10.629Z,27.30
2018-07-05T09:13:37.651Z,27.30
2018-07-05T09:16:04.493Z,26.80
2018-07-05T09:18:31.346Z,27.10
2018-07-05T09:20:58.221Z,27.50
2018-07-05T09:23:25.104Z,27.40
2018-07-05T09:25:51.904Z,27.30
2018-07-05T09:28:18.721Z,27.40
2018-07-05T09:30:45.569Z,27.50
2018-07-05T09:33:12.404Z,27.60
2018-07-05T09:35:39.218Z,27.40
2018-07-05T09:38:06.072Z,27.40
2018-07-05T09:40:32.885Z,27.30
2018-07-05T09:42:59.753Z,27.20
2018-07-05T09:45:26.602Z,27.30
2018-07-05T09:47:53.419Z,27.10
2018-07-05T09:50:20.266Z,27.20
2018-07-05T09:52:47.184Z,27.00
2018-07-05T09:55:13.996Z,27.10
2018-07-05T09:57:40.842Z,27.10
2018-07-05T10:00:10.545Z,27.00
2018-07-05T10:02:37.740Z,26.60
2018-07-05T10:05:04.714Z,26.60
2018-07-05T10:07:32.068Z,26.90
2018-07-05T10:09:58.997Z,27.20
2018-07-05T10:12:26.041Z,27.40
2018-07-05T10:14:52.985Z,27.60
2018-07-05T10:17:19.889Z,27.80
2018-07-05T10:19:46.833Z,28.00
2018-07-05T10:22:13.725Z,28.30
2018-07-05T10:24:40.561Z,28.80
2018-07-05T10:27:07.706Z,28.50
2018-07-05T10:29:46.893Z,28.40
2018-07-05T10:32:26.272Z,28.60
2018-07-05T10:34:53.848Z,28.90
2018-07-05T10:37:22.894Z,29.00
2018-07-05T10:40:02.805Z,29.20
2018-07-05T10:42:42.385Z,29.40
2018-07-05T10:45:21.754Z,29.40
2018-07-05T10:48:01.393Z,29.50
2018-07-05T10:50:40.721Z,29.30
2018-07-05T10:53:19.929Z,29.30
2018-07-05T10:55:59.167Z,29.30
2018-07-05T10:58:38.446Z,29.30
2018-07-05T11:01:17.621Z,29.40
2018-07-05T11:03:56.892Z,29.50
2018-07-05T11:06:36.253Z,29.40
2018-07-05T11:09:15.600Z,28.70
2018-07-05T11:11:54.903Z,28.70
2018-07-05T11:14:34.218Z,28.90
2018-07-05T11:17:13.371Z,28.70
2018-07-05T11:19:52.574Z,29.00
2018-07-05T11:22:31.914Z,29.50
2018-07-05T11:25:11.185Z,29.80
2018-07-05T11:27:50.605Z,29.80
2018-07-05T11:30:29.791Z,29.60
2018-07-05T11:33:09.145Z,29.70
2018-07-05T11:35:48.456Z,29.90
2018-07-05T11:38:27.648Z,29.70
2018-07-05T11:41:06.909Z,29.70
2018-07-05T11:43:46.225Z,29.70
2018-07-05T11:46:25.435Z,29.50
2018-07-05T11:49:04.634Z,29.30
2018-07-05T11:51:44.155Z,29.40
2018-07-05T11:54:23.496Z,29.50
2018-07-05T11:57:03.239Z,29.10
2018-07-05T11:59:42.706Z,28.60
2018-07-05T12:02:22.214Z,28.50
2018-07-05T12:05:01.862Z,28.60
2018-07-05T12:07:41.311Z,28.70
2018-07-05T12:10:20.758Z,29.10
2018-07-05T12:13:00.304Z,29.20
2018-07-05T12:15:39.958Z,29.10
2018-07-05T12:18:19.261Z,28.70
2018-07-05T12:20:58.558Z,28.30
2018-07-05T12:23:38.100Z,28.30
2018-07-05T12:26:17.395Z,28.00
2018-07-05T12:28:56.601Z,28.10
2018-07-05T12:31:35.890Z,28.00
2018-07-05T12:34:15.189Z,28.10
2018-07-05T12:36:54.533Z,28.10
2018-07-05T12:39:33.685Z,28.20
2018-07-05T12:42:12.884Z,28.20
2018-07-05T12:44:52.231Z,28.10
2018-07-05T12:47:31.620Z,28.10
2018-07-05T12:50:10.901Z,27.90
2018-07-05T12:52:50.137Z,27.80
2018-07-05T12:55:29.484Z,27.60
2018-07-05T12:58:08.733Z,27.40
2018-07-05T13:00:48.021Z,27.10
2018-07-05T13:03:27.241Z,26.90
2018-07-05T13:06:06.516Z,26.70
2018-07-05T13:08:45.721Z,26.50
2018-07-05T13:11:25.033Z,24.80
2018-07-05T13:14:04.212Z,22.60
2018-07-05T13:16:43.497Z,21.70
2018-07-05T13:19:22.631Z,21.10
2018-07-05T13:22:02.217Z,20.70
2018-07-05T13:24:41.409Z,20.50
2018-07-05T13:27:20.809Z,20.60
2018-07-05T13:29:59.989Z,20.80
2018-07-05T13:32:39.240Z,21.00
2018-07-05T13:35:18.296Z,21.10
2018-07-05T13:37:57.553Z,21.10
2018-07-05T13:40:36.676Z,21.10
2018-07-05T13:43:15.862Z,21.20
2018-07-05T13:45:55.093Z,21.10
2018-07-05T13:48:35.310Z,21.00
2018-07-05T13:51:14.659Z,21.20
2018-07-05T13:53:54.057Z,21.80
2018-07-05T13:56:33.213Z,22.30
2018-07-05T13:59:12.580Z,22.60
2018-07-05T14:01:51.924Z,22.80
2018-07-05T14:04:31.246Z,23.00
2018-07-05T14:07:10.487Z,23.00
2018-07-05T14:09:49.666Z,23.20
2018-07-05T14:12:28.921Z,23.20
2018-07-05T14:15:08.264Z,23.20
2018-07-05T14:17:47.769Z,23.40
2018-07-05T14:20:27.513Z,23.60
2018-07-05T14:23:06.774Z,23.80
2018-07-05T14:25:46.185Z,23.90
2018-07-05T14:28:25.502Z,24.10
2018-07-05T14:31:04.768Z,24.20
2018-07-05T14:33:44.081Z,24.20
2018-07-05T14:36:23.289Z,24.10
2018-07-05T14:39:02.925Z,23.90
2018-07-05T14:41:42.325Z,23.70
2018-07-05T14:44:21.625Z,23.60
2018-07-05T14:47:00.965Z,23.50
2018-07-05T14:49:40.178Z,23.50
2018-07-05T14:52:19.557Z,23.40
2018-07-05T14:57:32.478Z,23.10
2018-07-05T15:00:11.739Z,23.00
2018-07-05T15:02:50.921Z,23.10
2018-07-05T15:05:30.161Z,23.00
2018-07-05T15:08:09.603Z,22.90
2018-07-05T15:10:48.932Z,22.80
2018-07-05T15:13:28.184Z,22.90
2018-07-05T15:16:07.422Z,22.70
2018-07-05T15:18:46.922Z,22.70
2018-07-05T15:21:26.213Z,22.70
2018-07-05T15:24:05.509Z,22.60
2018-07-05T15:26:44.830Z,22.60
2018-07-05T15:29:24.055Z,22.60
2018-07-05T15:32:03.360Z,22.70
2018-07-05T15:34:42.663Z,22.80
2018-07-05T15:37:21.977Z,22.80
2018-07-05T15:40:01.344Z,22.80
2018-07-05T15:42:40.501Z,22.80
2018-07-05T15:45:19.817Z,22.80
2018-07-05T15:47:59.001Z,22.70
2018-07-05T15:50:38.465Z,22.60
2018-07-05T15:53:17.788Z,22.50
2018-07-05T15:55:57.056Z,22.40
2018-07-05T15:58:36.391Z,22.50
2018-07-05T16:01:15.609Z,22.40
2018-07-05T16:03:54.881Z,22.40
2018-07-05T16:06:34.090Z,22.40
2018-07-05T16:09:13.244Z,22.30
2018-07-05T16:11:52.403Z,22.20
2018-07-05T16:14:31.635Z,22.30
2018-07-05T16:17:10.786Z,22.30
2018-07-05T16:19:50.037Z,22.20
2018-07-05T16:22:29.290Z,22.20
2018-07-05T16:25:08.613Z,22.30
2018-07-05T16:27:47.800Z,22.30
2018-07-05T16:30:27.180Z,22.20
2018-07-05T16:33:06.437Z,22.20
2018-07-05T16:35:45.806Z,22.20
2018-07-05T16:38:25.073Z,22.20
2018-07-05T16:41:04.309Z,22.20
2018-07-05T16:43:43.557Z,22.20
2018-07-05T16:46:22.973Z,22.30
2018-07-05T16:49:02.238Z,22.30
2018-07-05T16:51:41.436Z,22.40
2018-07-05T16:54:20.647Z,22.50
2018-07-05T16:57:00.074Z,22.50
2018-07-05T16:59:39.421Z,22.40
2018-07-05T17:02:18.718Z,22.40
2018-07-05T17:04:58.078Z,22.40
2018-07-05T17:07:37.284Z,22.30
2018-07-05T17:10:16.673Z,22.30
2018-07-05T17:12:56.455Z,22.20
2018-07-05T17:15:35.771Z,22.10
2018-07-05T17:18:15.196Z,22.00
2018-07-05T17:20:54.532Z,21.90
2018-07-05T17:23:33.775Z,21.80
2018-07-05T17:26:13.155Z,21.80
2018-07-05T17:28:52.457Z,21.80
2018-07-05T17:31:31.689Z,21.80
2018-07-05T17:34:10.934Z,21.90
2018-07-05T17:36:50.273Z,21.80
2018-07-05T17:39:29.717Z,21.80
2018-07-05T17:42:08.885Z,21.70
2018-07-05T17:44:48.270Z,21.50
2018-07-05T17:47:27.430Z,21.50
2018-07-05T17:50:06.643Z,21.40
2018-07-05T17:52:45.918Z,21.30
2018-07-05T17:55:25.377Z,21.30
2018-07-05T17:58:04.717Z,21.20
2018-07-05T18:00:44.181Z,21.20
2018-07-05T18:03:23.701Z,21.20
2018-07-05T18:06:04.090Z,21.30
2018-07-05T18:08:43.445Z,21.30
2018-07-05T18:11:22.885Z,21.00
2018-07-05T18:14:02.265Z,20.90
2018-07-05T18:16:41.521Z,20.80
2018-07-05T18:19:20.943Z,20.60
2018-07-05T18:22:00.209Z,20.60
2018-07-05T18:24:39.548Z,20.50
2018-07-05T18:27:18.872Z,20.50
2018-07-05T18:29:58.253Z,20.50
2018-07-05T18:32:37.341Z,20.40
2018-07-05T18:35:17.220Z,20.30
2018-07-05T18:37:56.565Z,20.20
2018-07-05T18:40:35.881Z,20.20
2018-07-05T18:43:15.207Z,20.20
2018-07-05T18:45:54.466Z,20.30
2018-07-05T18:48:34.326Z,20.50
2018-07-05T18:51:14.658Z,20.50
2018-07-05T18:53:55.869Z,20.60
2018-07-05T18:56:35.326Z,20.50
2018-07-05T18:59:14.997Z,20.50
2018-07-05T19:01:54.630Z,20.60
2018-07-05T19:04:33.957Z,20.60
2018-07-05T19:07:13.181Z,20.50
2018-07-05T19:09:52.606Z,20.50
2018-07-05T19:12:32.065Z,20.40
2018-07-05T19:15:11.384Z,20.40
2018-07-05T19:17:50.620Z,20.50
2018-07-05T19:20:29.989Z,20.40
2018-07-05T19:23:09.298Z,20.30
2018-07-05T19:25:49.487Z,20.30
2018-07-05T19:28:29.167Z,20.20
2018-07-05T19:31:08.423Z,20.20
2018-07-05T19:33:47.678Z,20.20
2018-07-05T19:36:26.924Z,20.10
2018-07-05T19:39:06.432Z,20.10
2018-07-05T19:41:45.763Z,20.00
2018-07-05T19:44:25.062Z,20.00
2018-07-05T19:47:04.463Z,19.90
2018-07-05T19:49:43.678Z,19.80
2018-07-05T19:52:22.986Z,19.80
2018-07-05T19:55:02.416Z,19.90
2018-07-05T19:57:41.657Z,19.70
2018-07-05T20:00:20.899Z,19.60
2018-07-05T20:03:00.117Z,19.50
2018-07-05T20:05:39.329Z,19.50
2018-07-05T20:08:18.469Z,19.50
2018-07-05T20:10:57.612Z,19.40
2018-07-05T20:13:37.520Z,19.30
2018-07-05T20:16:16.949Z,19.20
2018-07-05T20:18:56.359Z,19.30
2018-07-05T20:21:35.818Z,19.30
2018-07-05T20:24:15.115Z,19.20
2018-07-05T20:26:54.674Z,19.10
2018-07-05T20:29:33.999Z,19.00
2018-07-05T20:32:13.205Z,19.10
2018-07-05T20:34:52.476Z,19.00
2018-07-05T20:37:31.825Z,18.90
2018-07-05T20:40:11.118Z,18.90
2018-07-05T20:42:50.381Z,18.70
2018-07-05T20:45:30.633Z,18.60
2018-07-05T20:48:10.203Z,18.40
2018-07-05T20:50:49.529Z,18.30
2018-07-05T20:53:28.762Z,18.20
2018-07-05T20:56:08.104Z,18.10
2018-07-05T20:58:47.528Z,18.00
2018-07-05T21:01:26.640Z,17.70
2018-07-05T21:04:05.884Z,17.40
2018-07-05T21:06:45.241Z,17.20
2018-07-05T21:09:24.573Z,17.10
2018-07-05T21:12:03.784Z,17.10
2018-07-05T21:14:42.983Z,17.00
2018-07-05T21:17:22.297Z,17.00
2018-07-05T21:20:01.453Z,17.10
2018-07-05T21:22:40.616Z,17.10
2018-07-05T21:25:19.864Z,17.00
2018-07-05T21:27:59.153Z,17.00
2018-07-05T21:30:38.529Z,17.00
2018-07-05T21:33:17.692Z,17.00
2018-07-05T21:35:57.009Z,17.00
2018-07-05T21:38:36.333Z,16.90
2018-07-05T21:41:15.541Z,16.90
2018-07-05T21:43:54.833Z,16.90
2018-07-05T21:46:34.046Z,17.00
2018-07-05T21:49:13.332Z,17.00
2018-07-05T21:51:52.650Z,17.00
2018-07-05T21:54:31.976Z,17.10
2018-07-05T21:57:11.313Z,17.20
2018-07-05T21:59:50.488Z,17.20
2018-07-05T22:02:29.671Z,17.20
2018-07-05T22:07:44.481Z,17.40
2018-07-05T22:10:23.850Z,17.50
2018-07-05T22:13:03.032Z,17.60
2018-07-05T22:15:42.350Z,17.60
2018-07-05T22:18:27.189Z,17.60
2018-07-05T22:21:08.812Z,17.70
2018-07-05T22:23:53.715Z,17.60
2018-07-05T22:26:37.509Z,17.70
2018-07-05T22:29:22.452Z,17.70
2018-07-05T22:32:01.643Z,17.70
2018-07-05T22:34:40.913Z,17.60
2018-07-05T22:37:20.076Z,17.50
2018-07-05T22:39:59.240Z,17.40
2018-07-05T22:42:38.653Z,17.50
2018-07-05T22:45:17.899Z,17.60
2018-07-05T22:47:57.121Z,17.60
2018-07-05T22:50:36.288Z,17.60
2018-07-05T22:53:15.621Z,17.50
2018-07-05T22:55:54.860Z,17.60
2018-07-05T22:58:34.368Z,17.50
2018-07-05T23:01:13.832Z,17.60
2018-07-05T23:03:53.274Z,17.60
2018-07-05T23:06:32.631Z,17.70
2018-07-05T23:09:12.040Z,17.80
2018-07-05T23:11:51.353Z,17.80
2018-07-05T23:14:30.940Z,17.70
2018-07-05T23:17:10.470Z,17.70
2018-07-05T23:19:49.969Z,17.70
2018-07-05T23:22:29.543Z,17.70
2018-07-05T23:25:09.155Z,17.80
2018-07-05T23:27:48.747Z,17.80
2018-07-05T23:30:28.382Z,17.70
2018-07-05T23:33:07.929Z,17.80
2018-07-05T23:35:47.494Z,17.80
2018-07-05T23:38:26.958Z,17.70
2018-07-05T23:41:06.475Z,17.80
2018-07-05T23:43:45.812Z,17.60
2018-07-05T23:46:25.244Z,17.40
2018-07-05T23:49:04.513Z,17.40
2018-07-05T23:51:43.801Z,17.40
2018-07-05T23:54:23.070Z,17.30
2018-07-05T23:57:02.253Z,17.20
2018-07-05T23:59:41.540Z,17.20
